sensor_id;sensor_type;location;lat;lon;timestamp;P1;durP1;ratioP1;P2;durP2;ratioP2
14992;SDS011;7592;51.088;13.732;2022-11-15T00:02:47;62.63;;;46.40;;
14992;SDS011;7592;51.088;13.732;2022-11-15T00:07:57;64.90;;;48.73;;
14992;SDS011;7592;51.088;13.732;2022-11-15T00:13:09;63.23;;;46.53;;
14992;SDS011;7592;51.088;13.732;2022-11-15T00:18:22;59.73;;;44.73;;
14992;SDS011;7592;51.088;13.732;2022-11-15T00:23:33;55.37;;;42.63;;
14992;SDS011;7592;51.088;13.732;2022-11-15T00:28:44;57.77;;;42.73;;
14992;SDS011;7592;51.088;13.732;2022-11-15T00:33:55;56.73;;;44.03;;
14992;SDS011;7592;51.088;13.732;2022-11-15T00:39:06;57.90;;;44.93;;
14992;SDS011;7592;51.088;13.732;2022-11-15T00:50:24;59.40;;;45.50;;
14992;SDS011;7592;51.088;13.732;2022-11-15T02:46:40;54.17;;;39.97;;
14992;SDS011;7592;51.088;13.732;2022-11-15T02:52:19;52.53;;;39.43;;
14992;SDS011;7592;51.088;13.732;2022-11-15T03:08:31;53.30;;;39.13;;
14992;SDS011;7592;51.088;13.732;2022-11-15T03:19:12;51.23;;;38.43;;
14992;SDS011;7592;51.088;13.732;2022-11-15T03:24:23;54.03;;;39.03;;
14992;SDS011;7592;51.088;13.732;2022-11-15T03:29:37;52.73;;;38.27;;
14992;SDS011;7592;51.088;13.732;2022-11-15T03:34:57;51.40;;;37.63;;
14992;SDS011;7592;51.088;13.732;2022-11-15T03:40:15;52.60;;;37.33;;
14992;SDS011;7592;51.088;13.732;2022-11-15T03:45:29;49.23;;;35.80;;
14992;SDS011;7592;51.088;13.732;2022-11-15T03:50:45;48.03;;;36.17;;
14992;SDS011;7592;51.088;13.732;2022-11-15T03:55:57;47.80;;;35.67;;
14992;SDS011;7592;51.088;13.732;2022-11-15T04:01:08;45.70;;;33.50;;
14992;SDS011;7592;51.088;13.732;2022-11-15T04:06:19;46.77;;;34.97;;
14992;SDS011;7592;51.088;13.732;2022-11-15T04:11:30;48.60;;;35.53;;
14992;SDS011;7592;51.088;13.732;2022-11-15T04:16:41;53.33;;;37.70;;
14992;SDS011;7592;51.088;13.732;2022-11-15T04:21:53;55.33;;;36.77;;
14992;SDS011;7592;51.088;13.732;2022-11-15T04:27:23;50.23;;;35.17;;
14992;SDS011;7592;51.088;13.732;2022-11-15T04:32:34;56.10;;;36.33;;
14992;SDS011;7592;51.088;13.732;2022-11-15T04:37:45;53.43;;;36.90;;
14992;SDS011;7592;51.088;13.732;2022-11-15T04:42:58;46.63;;;34.93;;
14992;SDS011;7592;51.088;13.732;2022-11-15T04:48:13;48.23;;;34.37;;
14992;SDS011;7592;51.088;13.732;2022-11-15T04:53:24;46.00;;;31.93;;
14992;SDS011;7592;51.088;13.732;2022-11-15T04:58:35;48.87;;;33.63;;
14992;SDS011;7592;51.088;13.732;2022-11-15T05:03:46;52.67;;;36.97;;
14992;SDS011;7592;51.088;13.732;2022-11-15T05:09:16;56.80;;;35.90;;
14992;SDS011;7592;51.088;13.732;2022-11-15T05:14:30;52.80;;;36.17;;
14992;SDS011;7592;51.088;13.732;2022-11-15T05:19:41;71.13;;;54.77;;
14992;SDS011;7592;51.088;13.732;2022-11-15T05:24:52;53.47;;;38.13;;
14992;SDS011;7592;51.088;13.732;2022-11-15T05:30:04;57.93;;;36.90;;
14992;SDS011;7592;51.088;13.732;2022-11-15T05:35:20;59.37;;;39.43;;
14992;SDS011;7592;51.088;13.732;2022-11-15T05:40:42;64.87;;;46.67;;
14992;SDS011;7592;51.088;13.732;2022-11-15T05:45:52;56.93;;;41.87;;
14992;SDS011;7592;51.088;13.732;2022-11-15T05:51:05;60.10;;;40.10;;
14992;SDS011;7592;51.088;13.732;2022-11-15T05:56:17;61.50;;;45.47;;
14992;SDS011;7592;51.088;13.732;2022-11-15T06:01:28;54.33;;;36.83;;
14992;SDS011;7592;51.088;13.732;2022-11-15T06:06:40;60.50;;;40.90;;
14992;SDS011;7592;51.088;13.732;2022-11-15T06:11:51;59.73;;;40.63;;
14992;SDS011;7592;51.088;13.732;2022-11-15T06:17:02;59.37;;;38.53;;
14992;SDS011;7592;51.088;13.732;2022-11-15T06:22:21;87.73;;;67.80;;
14992;SDS011;7592;51.088;13.732;2022-11-15T06:27:32;78.47;;;55.97;;
14992;SDS011;7592;51.088;13.732;2022-11-15T06:32:43;60.23;;;40.43;;
14992;SDS011;7592;51.088;13.732;2022-11-15T06:37:55;52.63;;;36.10;;
14992;SDS011;7592;51.088;13.732;2022-11-15T06:43:06;52.90;;;36.00;;
14992;SDS011;7592;51.088;13.732;2022-11-15T06:48:17;50.10;;;33.07;;
14992;SDS011;7592;51.088;13.732;2022-11-15T06:53:29;47.83;;;33.20;;
14992;SDS011;7592;51.088;13.732;2022-11-15T06:58:41;47.33;;;32.30;;
14992;SDS011;7592;51.088;13.732;2022-11-15T07:03:52;44.60;;;31.23;;
14992;SDS011;7592;51.088;13.732;2022-11-15T07:09:03;41.67;;;30.83;;
14992;SDS011;7592;51.088;13.732;2022-11-15T07:14:16;52.37;;;32.17;;
14992;SDS011;7592;51.088;13.732;2022-11-15T07:19:27;41.20;;;30.60;;
14992;SDS011;7592;51.088;13.732;2022-11-15T07:24:38;44.87;;;28.90;;
14992;SDS011;7592;51.088;13.732;2022-11-15T07:29:49;35.60;;;24.87;;
14992;SDS011;7592;51.088;13.732;2022-11-15T07:35:00;35.43;;;26.03;;
14992;SDS011;7592;51.088;13.732;2022-11-15T07:40:11;29.83;;;25.60;;
14992;SDS011;7592;51.088;13.732;2022-11-15T07:45:23;25.97;;;21.37;;
14992;SDS011;7592;51.088;13.732;2022-11-15T07:50:36;25.07;;;20.93;;
14992;SDS011;7592;51.088;13.732;2022-11-15T07:55:50;27.07;;;22.20;;
14992;SDS011;7592;51.088;13.732;2022-11-15T08:01:07;26.63;;;22.13;;
14992;SDS011;7592;51.088;13.732;2022-11-15T08:06:19;28.90;;;22.77;;
14992;SDS011;7592;51.088;13.732;2022-11-15T08:11:30;26.23;;;22.13;;
14992;SDS011;7592;51.088;13.732;2022-11-15T08:16:44;28.73;;;23.27;;
14992;SDS011;7592;51.088;13.732;2022-11-15T08:21:55;25.73;;;20.67;;
14992;SDS011;7592;51.088;13.732;2022-11-15T08:27:06;28.50;;;21.40;;
14992;SDS011;7592;51.088;13.732;2022-11-15T08:32:24;22.53;;;18.43;;
14992;SDS011;7592;51.088;13.732;2022-11-15T08:37:36;23.10;;;18.63;;
14992;SDS011;7592;51.088;13.732;2022-11-15T08:42:51;24.70;;;18.43;;
14992;SDS011;7592;51.088;13.732;2022-11-15T08:48:02;19.37;;;16.57;;
14992;SDS011;7592;51.088;13.732;2022-11-15T08:53:14;19.33;;;17.20;;
14992;SDS011;7592;51.088;13.732;2022-11-15T08:58:25;20.80;;;17.03;;
14992;SDS011;7592;51.088;13.732;2022-11-15T09:03:36;18.00;;;16.20;;
14992;SDS011;7592;51.088;13.732;2022-11-15T09:08:48;20.33;;;16.37;;
14992;SDS011;7592;51.088;13.732;2022-11-15T09:13:52;17.47;;;15.63;;
14992;SDS011;7592;51.088;13.732;2022-11-15T09:19:06;17.77;;;15.97;;
14992;SDS011;7592;51.088;13.732;2022-11-15T09:24:21;17.87;;;15.73;;
14992;SDS011;7592;51.088;13.732;2022-11-15T09:29:32;18.67;;;16.37;;
14992;SDS011;7592;51.088;13.732;2022-11-15T09:34:44;17.20;;;15.30;;
14992;SDS011;7592;51.088;13.732;2022-11-15T09:39:57;18.80;;;16.90;;
14992;SDS011;7592;51.088;13.732;2022-11-15T09:50:42;19.50;;;15.67;;
14992;SDS011;7592;51.088;13.732;2022-11-15T09:55:50;16.83;;;15.13;;
14992;SDS011;7592;51.088;13.732;2022-11-15T10:01:08;16.87;;;15.17;;
14992;SDS011;7592;51.088;13.732;2022-11-15T10:06:14;16.90;;;14.03;;
14992;SDS011;7592;51.088;13.732;2022-11-15T10:11:17;15.50;;;14.00;;
14992;SDS011;7592;51.088;13.732;2022-11-15T10:16:52;17.37;;;14.37;;
14992;SDS011;7592;51.088;13.732;2022-11-15T10:22:14;17.27;;;14.77;;
14992;SDS011;7592;51.088;13.732;2022-11-15T10:27:20;18.13;;;14.83;;
14992;SDS011;7592;51.088;13.732;2022-11-15T10:32:14;16.63;;;14.93;;
14992;SDS011;7592;51.088;13.732;2022-11-15T10:37:08;15.13;;;13.67;;
14992;SDS011;7592;51.088;13.732;2022-11-15T10:47:24;15.50;;;13.90;;
14992;SDS011;7592;51.088;13.732;2022-11-15T10:52:18;17.00;;;15.20;;
14992;SDS011;7592;51.088;13.732;2022-11-15T10:57:18;15.23;;;13.80;;
14992;SDS011;7592;51.088;13.732;2022-11-15T11:07:55;16.53;;;14.07;;
14992;SDS011;7592;51.088;13.732;2022-11-15T11:12:55;15.70;;;14.10;;
14992;SDS011;7592;51.088;13.732;2022-11-15T11:18:17;17.37;;;15.50;;
14992;SDS011;7592;51.088;13.732;2022-11-15T11:24:00;16.83;;;13.87;;
14992;SDS011;7592;51.088;13.732;2022-11-15T11:28:54;15.53;;;14.00;;
14992;SDS011;7592;51.088;13.732;2022-11-15T11:39:16;16.03;;;14.33;;
14992;SDS011;7592;51.088;13.732;2022-11-15T12:00:25;17.47;;;15.43;;
14992;SDS011;7592;51.088;13.732;2022-11-15T12:05:31;18.13;;;15.57;;
14992;SDS011;7592;51.088;13.732;2022-11-15T12:10:33;17.53;;;15.40;;
14992;SDS011;7592;51.088;13.732;2022-11-15T12:15:40;22.23;;;16.33;;
14992;SDS011;7592;51.088;13.732;2022-11-15T12:20:36;19.97;;;15.17;;
14992;SDS011;7592;51.088;13.732;2022-11-15T12:25:36;17.43;;;15.17;;
14992;SDS011;7592;51.088;13.732;2022-11-15T12:30:49;21.00;;;17.07;;
14992;SDS011;7592;51.088;13.732;2022-11-15T12:35:57;18.90;;;15.77;;
14992;SDS011;7592;51.088;13.732;2022-11-15T12:41:15;18.80;;;15.80;;
14992;SDS011;7592;51.088;13.732;2022-11-15T12:46:11;21.37;;;16.43;;
14992;SDS011;7592;51.088;13.732;2022-11-15T12:51:13;21.37;;;15.43;;
14992;SDS011;7592;51.088;13.732;2022-11-15T13:06:41;18.67;;;15.20;;
14992;SDS011;7592;51.088;13.732;2022-11-15T13:11:48;17.47;;;14.13;;
14992;SDS011;7592;51.088;13.732;2022-11-15T13:16:42;17.67;;;15.07;;
14992;SDS011;7592;51.088;13.732;2022-11-15T13:21:47;22.03;;;15.70;;
14992;SDS011;7592;51.088;13.732;2022-11-15T13:26:59;18.97;;;14.43;;
14992;SDS011;7592;51.088;13.732;2022-11-15T13:31:51;18.77;;;15.70;;
14992;SDS011;7592;51.088;13.732;2022-11-15T13:36:47;17.77;;;15.17;;
14992;SDS011;7592;51.088;13.732;2022-11-15T13:41:47;20.83;;;14.70;;
14992;SDS011;7592;51.088;13.732;2022-11-15T13:56:34;21.20;;;16.83;;
14992;SDS011;7592;51.088;13.732;2022-11-15T14:01:28;18.17;;;16.27;;
14992;SDS011;7592;51.088;13.732;2022-11-15T14:06:23;19.97;;;16.70;;
14992;SDS011;7592;51.088;13.732;2022-11-15T14:11:19;22.20;;;17.47;;
14992;SDS011;7592;51.088;13.732;2022-11-15T14:16:12;21.80;;;16.80;;
14992;SDS011;7592;51.088;13.732;2022-11-15T14:21:06;23.27;;;17.77;;
14992;SDS011;7592;51.088;13.732;2022-11-15T14:25:59;20.57;;;16.77;;
14992;SDS011;7592;51.088;13.732;2022-11-15T14:30:52;20.73;;;16.87;;
14992;SDS011;7592;51.088;13.732;2022-11-15T14:35:46;21.40;;;17.07;;
14992;SDS011;7592;51.088;13.732;2022-11-15T14:40:39;22.47;;;17.33;;
14992;SDS011;7592;51.088;13.732;2022-11-15T14:45:31;21.80;;;17.53;;
14992;SDS011;7592;51.088;13.732;2022-11-15T14:50:24;26.70;;;19.83;;
14992;SDS011;7592;51.088;13.732;2022-11-15T15:00:17;26.97;;;18.33;;
14992;SDS011;7592;51.088;13.732;2022-11-15T15:05:31;23.37;;;18.60;;
14992;SDS011;7592;51.088;13.732;2022-11-15T15:10:22;29.27;;;21.27;;
14992;SDS011;7592;51.088;13.732;2022-11-15T15:15:37;26.10;;;19.30;;
14992;SDS011;7592;51.088;13.732;2022-11-15T15:20:29;325.87;;;50.90;;
14992;SDS011;7592;51.088;13.732;2022-11-15T15:25:24;153.23;;;33.33;;
14992;SDS011;7592;51.088;13.732;2022-11-15T15:30:25;184.30;;;31.40;;
14992;SDS011;7592;51.088;13.732;2022-11-15T15:35:19;59.40;;;23.47;;
14992;SDS011;7592;51.088;13.732;2022-11-15T15:40:16;24.23;;;18.07;;
14992;SDS011;7592;51.088;13.732;2022-11-15T15:45:11;27.00;;;20.57;;
14992;SDS011;7592;51.088;13.732;2022-11-15T15:50:08;24.90;;;19.17;;
14992;SDS011;7592;51.088;13.732;2022-11-15T15:55:16;26.70;;;20.20;;
14992;SDS011;7592;51.088;13.732;2022-11-15T16:00:08;25.67;;;20.03;;
14992;SDS011;7592;51.088;13.732;2022-11-15T16:05:05;26.87;;;19.97;;
14992;SDS011;7592;51.088;13.732;2022-11-15T16:09:57;27.43;;;20.30;;
14992;SDS011;7592;51.088;13.732;2022-11-15T16:14:52;27.40;;;20.93;;
14992;SDS011;7592;51.088;13.732;2022-11-15T16:19:45;27.33;;;19.87;;
14992;SDS011;7592;51.088;13.732;2022-11-15T16:24:44;29.17;;;20.93;;
14992;SDS011;7592;51.088;13.732;2022-11-15T16:29:36;28.20;;;20.33;;
14992;SDS011;7592;51.088;13.732;2022-11-15T16:34:28;27.60;;;20.83;;
14992;SDS011;7592;51.088;13.732;2022-11-15T16:39:25;25.67;;;19.17;;
14992;SDS011;7592;51.088;13.732;2022-11-15T16:44:19;28.90;;;21.50;;
14992;SDS011;7592;51.088;13.732;2022-11-15T16:49:14;29.47;;;21.37;;
14992;SDS011;7592;51.088;13.732;2022-11-15T16:54:09;27.10;;;21.43;;
14992;SDS011;7592;51.088;13.732;2022-11-15T16:59:01;25.87;;;20.27;;
14992;SDS011;7592;51.088;13.732;2022-11-15T17:03:54;25.97;;;19.90;;
14992;SDS011;7592;51.088;13.732;2022-11-15T17:08:47;27.77;;;21.10;;
14992;SDS011;7592;51.088;13.732;2022-11-15T17:13:40;25.90;;;19.37;;
14992;SDS011;7592;51.088;13.732;2022-11-15T17:18:32;28.80;;;20.60;;
14992;SDS011;7592;51.088;13.732;2022-11-15T17:29:31;27.97;;;20.43;;
14992;SDS011;7592;51.088;13.732;2022-11-15T17:34:25;27.23;;;19.50;;
14992;SDS011;7592;51.088;13.732;2022-11-15T17:39:17;28.50;;;21.77;;
14992;SDS011;7592;51.088;13.732;2022-11-15T17:44:12;25.90;;;19.87;;
14992;SDS011;7592;51.088;13.732;2022-11-15T17:49:05;27.23;;;19.50;;
14992;SDS011;7592;51.088;13.732;2022-11-15T17:53:57;34.77;;;24.20;;
14992;SDS011;7592;51.088;13.732;2022-11-15T17:58:50;37.90;;;26.73;;
14992;SDS011;7592;51.088;13.732;2022-11-15T18:03:49;30.53;;;22.53;;
14992;SDS011;7592;51.088;13.732;2022-11-15T18:08:44;26.23;;;20.27;;
14992;SDS011;7592;51.088;13.732;2022-11-15T18:13:41;34.33;;;24.83;;
14992;SDS011;7592;51.088;13.732;2022-11-15T18:18:42;30.83;;;23.53;;
14992;SDS011;7592;51.088;13.732;2022-11-15T18:23:35;29.57;;;21.40;;
14992;SDS011;7592;51.088;13.732;2022-11-15T18:28:31;28.33;;;21.70;;
14992;SDS011;7592;51.088;13.732;2022-11-15T18:33:26;27.97;;;21.40;;
14992;SDS011;7592;51.088;13.732;2022-11-15T18:38:19;31.90;;;21.93;;
14992;SDS011;7592;51.088;13.732;2022-11-15T18:43:13;26.93;;;20.57;;
14992;SDS011;7592;51.088;13.732;2022-11-15T18:48:06;32.17;;;22.60;;
14992;SDS011;7592;51.088;13.732;2022-11-15T18:52:58;34.73;;;23.47;;
14992;SDS011;7592;51.088;13.732;2022-11-15T18:57:51;31.83;;;22.20;;
14992;SDS011;7592;51.088;13.732;2022-11-15T19:02:45;32.93;;;22.80;;
14992;SDS011;7592;51.088;13.732;2022-11-15T19:07:37;32.20;;;22.63;;
14992;SDS011;7592;51.088;13.732;2022-11-15T19:12:32;32.77;;;22.03;;
14992;SDS011;7592;51.088;13.732;2022-11-15T19:17:25;29.57;;;21.27;;
14992;SDS011;7592;51.088;13.732;2022-11-15T19:22:18;30.67;;;22.07;;
14992;SDS011;7592;51.088;13.732;2022-11-15T19:27:15;29.73;;;21.23;;
14992;SDS011;7592;51.088;13.732;2022-11-15T19:32:08;28.00;;;20.70;;
14992;SDS011;7592;51.088;13.732;2022-11-15T19:37:00;29.57;;;21.90;;
14992;SDS011;7592;51.088;13.732;2022-11-15T19:41:53;28.77;;;21.23;;
14992;SDS011;7592;51.088;13.732;2022-11-15T19:46:48;27.53;;;20.37;;
14992;SDS011;7592;51.088;13.732;2022-11-15T19:51:42;25.80;;;18.50;;
14992;SDS011;7592;51.088;13.732;2022-11-15T19:56:37;29.70;;;19.97;;
14992;SDS011;7592;51.088;13.732;2022-11-15T20:01:33;24.60;;;18.87;;
14992;SDS011;7592;51.088;13.732;2022-11-15T20:06:29;30.97;;;19.13;;
14992;SDS011;7592;51.088;13.732;2022-11-15T20:11:22;27.50;;;19.73;;
14992;SDS011;7592;51.088;13.732;2022-11-15T20:16:18;27.63;;;19.67;;
14992;SDS011;7592;51.088;13.732;2022-11-15T20:21:13;25.03;;;18.70;;
14992;SDS011;7592;51.088;13.732;2022-11-15T20:26:05;26.33;;;18.73;;
14992;SDS011;7592;51.088;13.732;2022-11-15T20:31:00;24.57;;;16.50;;
14992;SDS011;7592;51.088;13.732;2022-11-15T20:35:53;21.40;;;16.30;;
14992;SDS011;7592;51.088;13.732;2022-11-15T20:40:48;20.43;;;14.67;;
14992;SDS011;7592;51.088;13.732;2022-11-15T20:45:51;19.47;;;14.90;;
14992;SDS011;7592;51.088;13.732;2022-11-15T20:50:47;20.73;;;16.00;;
14992;SDS011;7592;51.088;13.732;2022-11-15T20:55:42;18.57;;;14.50;;
14992;SDS011;7592;51.088;13.732;2022-11-15T21:00:38;18.50;;;14.53;;
14992;SDS011;7592;51.088;13.732;2022-11-15T21:05:46;20.57;;;14.80;;
14992;SDS011;7592;51.088;13.732;2022-11-15T21:10:39;20.10;;;14.67;;
14992;SDS011;7592;51.088;13.732;2022-11-15T21:15:50;18.20;;;14.20;;
14992;SDS011;7592;51.088;13.732;2022-11-15T21:20:45;17.87;;;13.50;;
14992;SDS011;7592;51.088;13.732;2022-11-15T21:25:37;18.90;;;15.03;;
14992;SDS011;7592;51.088;13.732;2022-11-15T21:30:29;17.03;;;14.20;;
14992;SDS011;7592;51.088;13.732;2022-11-15T21:35:22;17.30;;;13.60;;
14992;SDS011;7592;51.088;13.732;2022-11-15T21:40:14;16.87;;;12.97;;
14992;SDS011;7592;51.088;13.732;2022-11-15T21:45:07;15.87;;;12.33;;
14992;SDS011;7592;51.088;13.732;2022-11-15T21:49:59;18.17;;;13.93;;
14992;SDS011;7592;51.088;13.732;2022-11-15T21:54:52;16.73;;;12.40;;
14992;SDS011;7592;51.088;13.732;2022-11-15T21:59:44;17.33;;;13.80;;
14992;SDS011;7592;51.088;13.732;2022-11-15T22:04:55;15.77;;;12.90;;
14992;SDS011;7592;51.088;13.732;2022-11-15T22:09:47;16.80;;;12.97;;
14992;SDS011;7592;51.088;13.732;2022-11-15T22:14:39;19.17;;;13.63;;
14992;SDS011;7592;51.088;13.732;2022-11-15T22:19:31;16.17;;;13.13;;
14992;SDS011;7592;51.088;13.732;2022-11-15T22:24:24;18.60;;;13.13;;
14992;SDS011;7592;51.088;13.732;2022-11-15T22:29:16;16.23;;;12.77;;
14992;SDS011;7592;51.088;13.732;2022-11-15T22:34:08;20.13;;;13.83;;
14992;SDS011;7592;51.088;13.732;2022-11-15T22:39:00;15.60;;;12.30;;
14992;SDS011;7592;51.088;13.732;2022-11-15T22:43:53;16.67;;;12.40;;
14992;SDS011;7592;51.088;13.732;2022-11-15T22:48:45;17.47;;;12.97;;
14992;SDS011;7592;51.088;13.732;2022-11-15T22:53:37;15.67;;;12.33;;
14992;SDS011;7592;51.088;13.732;2022-11-15T22:58:30;16.27;;;13.03;;
14992;SDS011;7592;51.088;13.732;2022-11-15T23:03:25;14.83;;;11.90;;
14992;SDS011;7592;51.088;13.732;2022-11-15T23:08:18;16.30;;;12.50;;
14992;SDS011;7592;51.088;13.732;2022-11-15T23:13:12;13.93;;;10.87;;
14992;SDS011;7592;51.088;13.732;2022-11-15T23:18:07;13.70;;;10.93;;
14992;SDS011;7592;51.088;13.732;2022-11-15T23:23:00;13.17;;;10.43;;
14992;SDS011;7592;51.088;13.732;2022-11-15T23:27:52;12.57;;;10.07;;
14992;SDS011;7592;51.088;13.732;2022-11-15T23:32:44;13.00;;;10.23;;
14992;SDS011;7592;51.088;13.732;2022-11-15T23:37:57;11.73;;;10.00;;
14992;SDS011;7592;51.088;13.732;2022-11-15T23:42:53;13.90;;;11.70;;
14992;SDS011;7592;51.088;13.732;2022-11-15T23:47:45;15.40;;;11.83;;
14992;SDS011;7592;51.088;13.732;2022-11-15T23:52:37;11.43;;;9.10;;
14992;SDS011;7592;51.088;13.732;2022-11-15T23:57:29;12.53;;;10.47;;
